createdAt,value
2019-03-26T00:00:51.654Z,21.13
2019-03-26T00:02:55.840Z,16.03
2019-03-26T00:04:59.729Z,21.43
2019-03-26T00:07:03.609Z,20.80
2019-03-26T00:09:08.888Z,19.40
2019-03-26T00:11:12.802Z,13.97
2019-03-26T00:13:16.654Z,20.13
2019-03-26T00:15:20.547Z,20.50
2019-03-26T00:17:24.449Z,17.47
2019-03-26T00:19:28.346Z,20.93
2019-03-26T00:21:32.212Z,18.87
2019-03-26T00:23:36.074Z,23.37
2019-03-26T00:25:40.012Z,21.00
2019-03-26T00:27:43.880Z,15.33
2019-03-26T00:29:47.750Z,20.50
2019-03-26T00:31:51.634Z,19.90
2019-03-26T00:33:55.505Z,19.63
2019-03-26T00:35:59.402Z,24.23
2019-03-26T00:38:03.248Z,19.33
2019-03-26T00:40:07.256Z,23.93
2019-03-26T00:42:11.106Z,26.00
2019-03-26T00:44:14.992Z,22.13
2019-03-26T00:46:18.888Z,18.23
2019-03-26T00:48:22.821Z,23.60
2019-03-26T00:50:26.690Z,18.97
2019-03-26T00:52:30.631Z,15.57
2019-03-26T00:54:34.511Z,22.43
2019-03-26T00:56:38.398Z,28.03
2019-03-26T00:58:42.278Z,12.57
2019-03-26T01:00:46.249Z,16.23
2019-03-26T01:02:50.147Z,20.47
2019-03-26T01:04:54.005Z,23.37
2019-03-26T01:06:57.877Z,19.43
2019-03-26T01:09:01.817Z,17.87
2019-03-26T01:11:05.985Z,19.53
2019-03-26T01:13:09.908Z,15.47
2019-03-26T01:15:13.877Z,19.13
2019-03-26T01:17:17.792Z,27.60
2019-03-26T01:19:21.678Z,31.37
2019-03-26T01:21:25.529Z,17.93
2019-03-26T01:23:29.426Z,18.10
2019-03-26T01:25:33.279Z,21.20
2019-03-26T01:27:37.184Z,14.70
2019-03-26T01:29:41.054Z,14.87
2019-03-26T01:31:44.918Z,22.43
2019-03-26T01:33:48.814Z,18.40
2019-03-26T01:35:52.691Z,18.60
2019-03-26T01:37:56.556Z,13.70
2019-03-26T01:40:00.473Z,22.13
2019-03-26T01:42:04.641Z,19.07
2019-03-26T01:44:08.485Z,21.90
2019-03-26T01:46:12.449Z,13.80
2019-03-26T01:48:16.308Z,17.87
2019-03-26T01:50:20.157Z,18.30
2019-03-26T01:52:24.049Z,19.07
2019-03-26T01:54:27.973Z,15.50
2019-03-26T01:56:31.877Z,13.27
2019-03-26T01:58:35.784Z,16.67
2019-03-26T02:00:39.645Z,24.37
2019-03-26T02:02:43.531Z,15.53
2019-03-26T02:04:59.248Z,20.17
2019-03-26T02:06:52.940Z,22.47
2019-03-26T02:08:56.853Z,27.50
2019-03-26T02:11:01.002Z,11.03
2019-03-26T02:13:04.915Z,16.33
2019-03-26T02:15:08.878Z,16.40
2019-03-26T02:17:12.770Z,17.80
2019-03-26T02:19:16.734Z,20.20
2019-03-26T02:21:20.694Z,14.77
2019-03-26T02:23:24.576Z,24.90
2019-03-26T02:25:28.442Z,22.27
2019-03-26T02:27:32.353Z,20.53
2019-03-26T02:29:36.281Z,21.43
2019-03-26T02:31:40.222Z,31.63
2019-03-26T02:33:44.129Z,9.57
2019-03-26T02:35:48.065Z,24.00
2019-03-26T02:37:51.902Z,18.93
2019-03-26T02:39:55.793Z,20.97
2019-03-26T02:41:59.646Z,22.77
2019-03-26T02:44:03.626Z,16.73
2019-03-26T02:46:15.780Z,14.80
2019-03-26T02:48:20.059Z,18.10
2019-03-26T02:50:23.974Z,24.90
2019-03-26T02:52:29.354Z,21.03
2019-03-26T02:54:33.211Z,24.03
2019-03-26T02:56:37.130Z,18.50
2019-03-26T02:58:41.017Z,15.23
2019-03-26T03:00:44.905Z,14.53
2019-03-26T03:02:48.788Z,18.57
2019-03-26T03:04:52.643Z,17.63
2019-03-26T03:06:56.532Z,21.57
2019-03-26T03:09:00.391Z,13.70
2019-03-26T03:11:04.230Z,17.67
2019-03-26T03:13:08.155Z,18.40
2019-03-26T03:15:12.301Z,12.13
2019-03-26T03:17:16.184Z,17.50
2019-03-26T03:19:20.071Z,16.30
2019-03-26T03:21:23.987Z,15.53
2019-03-26T03:23:27.888Z,20.87
2019-03-26T03:25:31.738Z,24.13
2019-03-26T03:27:35.711Z,13.47
2019-03-26T03:29:39.543Z,20.43
2019-03-26T03:31:43.419Z,12.33
2019-03-26T03:33:47.321Z,21.67
2019-03-26T03:35:52.879Z,19.07
2019-03-26T03:37:56.739Z,18.83
2019-03-26T03:40:00.604Z,14.20
2019-03-26T03:42:04.476Z,26.50
2019-03-26T03:44:08.392Z,24.40
2019-03-26T03:46:12.641Z,19.73
2019-03-26T03:48:17.267Z,21.30
2019-03-26T03:50:21.418Z,19.63
2019-03-26T03:52:25.938Z,19.13
2019-03-26T03:54:30.474Z,23.23
2019-03-26T03:56:37.714Z,19.37
2019-03-26T03:58:44.531Z,16.57
2019-03-26T04:00:48.421Z,16.17
2019-03-26T04:02:52.422Z,17.17
2019-03-26T04:04:56.379Z,13.57
2019-03-26T04:07:00.267Z,17.10
2019-03-26T04:09:05.099Z,20.37
2019-03-26T04:11:09.005Z,16.00
2019-03-26T04:13:12.898Z,21.37
2019-03-26T04:15:16.821Z,19.90
2019-03-26T04:17:20.663Z,18.33
2019-03-26T04:19:24.537Z,14.27
2019-03-26T04:21:28.480Z,20.23
2019-03-26T04:23:32.351Z,13.83
2019-03-26T04:25:36.224Z,19.63
2019-03-26T04:27:40.114Z,13.20
2019-03-26T04:29:44.048Z,16.47
2019-03-26T04:31:47.913Z,18.07
2019-03-26T04:33:51.768Z,22.37
2019-03-26T04:35:55.692Z,19.70
2019-03-26T04:37:59.559Z,17.13
2019-03-26T04:40:03.538Z,18.53
2019-03-26T04:42:07.543Z,12.20
2019-03-26T04:44:11.433Z,20.27
2019-03-26T04:46:15.341Z,15.13
2019-03-26T04:48:19.275Z,18.03
2019-03-26T04:50:23.137Z,18.57
2019-03-26T04:52:27.080Z,17.27
2019-03-26T04:54:30.953Z,27.33
2019-03-26T04:56:34.826Z,25.53
2019-03-26T04:58:38.721Z,18.87
2019-03-26T05:00:42.584Z,22.43
2019-03-26T05:02:46.466Z,14.63
2019-03-26T05:04:50.355Z,25.83
2019-03-26T05:06:54.218Z,13.97
2019-03-26T05:08:58.110Z,11.40
2019-03-26T05:11:01.967Z,13.27
2019-03-26T05:13:05.866Z,18.30
2019-03-26T05:15:10.017Z,18.27
2019-03-26T05:17:13.910Z,15.50
2019-03-26T05:19:17.848Z,11.63
2019-03-26T05:21:21.748Z,14.80
2019-03-26T05:23:25.645Z,11.23
2019-03-26T05:25:29.553Z,11.47
2019-03-26T05:27:44.834Z,20.03
2019-03-26T05:29:38.953Z,12.70
2019-03-26T05:31:43.026Z,13.83
2019-03-26T05:33:46.863Z,16.97
2019-03-26T05:35:51.760Z,15.03
2019-03-26T05:37:55.890Z,16.90
2019-03-26T05:39:59.730Z,16.43
2019-03-26T05:42:03.646Z,13.87
2019-03-26T05:44:07.510Z,26.73
2019-03-26T05:46:11.374Z,12.60
2019-03-26T05:48:15.325Z,8.50
2019-03-26T05:50:19.153Z,14.57
2019-03-26T05:52:23.065Z,17.33
2019-03-26T05:54:26.961Z,11.23
2019-03-26T05:56:30.837Z,12.17
2019-03-26T05:58:34.762Z,12.03
2019-03-26T06:00:38.652Z,11.47
2019-03-26T06:02:42.530Z,17.23
2019-03-26T06:04:46.439Z,15.47
2019-03-26T06:06:50.299Z,12.97
2019-03-26T06:08:54.210Z,19.43
2019-03-26T06:10:58.074Z,15.40
2019-03-26T06:13:01.954Z,9.30
2019-03-26T06:15:09.279Z,11.43
2019-03-26T06:17:13.141Z,11.47
2019-03-26T06:19:17.063Z,14.90
2019-03-26T06:21:20.942Z,10.17
2019-03-26T06:23:24.826Z,7.47
2019-03-26T06:25:28.695Z,17.60
2019-03-26T06:27:32.604Z,17.53
2019-03-26T06:29:36.475Z,12.33
2019-03-26T06:31:40.334Z,17.90
2019-03-26T06:33:44.216Z,10.07
2019-03-26T06:35:48.122Z,12.13
2019-03-26T06:37:52.037Z,14.70
2019-03-26T06:39:58.342Z,11.13
2019-03-26T06:42:01.549Z,9.07
2019-03-26T06:44:05.474Z,10.83
2019-03-26T06:46:09.348Z,13.57
2019-03-26T06:48:13.222Z,9.87
2019-03-26T06:50:17.152Z,10.97
2019-03-26T06:52:21.070Z,11.47
2019-03-26T06:54:25.096Z,6.97
2019-03-26T06:56:28.929Z,11.17
2019-03-26T06:58:32.799Z,16.97
2019-03-26T07:00:36.781Z,13.80
2019-03-26T07:02:40.736Z,20.30
2019-03-26T07:04:46.086Z,12.50
2019-03-26T07:06:50.000Z,14.27
2019-03-26T07:08:53.862Z,9.60
2019-03-26T07:10:57.735Z,5.70
2019-03-26T07:13:01.696Z,13.97
2019-03-26T07:15:08.628Z,12.33
2019-03-26T07:17:12.458Z,14.30
2019-03-26T07:19:16.370Z,8.67
2019-03-26T07:21:21.212Z,11.30
2019-03-26T07:23:25.146Z,12.30
2019-03-26T07:25:29.005Z,6.37
2019-03-26T07:27:33.036Z,9.10
2019-03-26T07:29:36.916Z,7.03
2019-03-26T07:31:40.788Z,11.37
2019-03-26T07:33:44.690Z,11.37
2019-03-26T07:35:48.633Z,11.57
2019-03-26T07:37:52.494Z,13.17
2019-03-26T07:39:56.468Z,19.40
2019-03-26T07:42:00.354Z,10.20
2019-03-26T07:44:04.211Z,14.53
2019-03-26T07:46:08.120Z,8.67
2019-03-26T07:48:12.008Z,9.10
2019-03-26T07:50:15.888Z,10.27
2019-03-26T07:52:19.754Z,11.50
2019-03-26T07:54:23.614Z,15.27
2019-03-26T07:56:27.498Z,10.73
2019-03-26T07:58:33.213Z,10.73
2019-03-26T08:00:38.118Z,16.77
2019-03-26T08:02:42.008Z,9.23
2019-03-26T08:04:46.001Z,9.40
2019-03-26T08:06:49.875Z,10.90
2019-03-26T08:08:53.757Z,9.37
2019-03-26T08:10:57.666Z,5.23
2019-03-26T08:13:01.534Z,9.87
2019-03-26T08:15:07.479Z,10.78
2019-03-26T08:17:11.331Z,9.53
2019-03-26T08:19:15.170Z,7.83
2019-03-26T08:21:19.102Z,8.93
2019-03-26T08:23:22.992Z,15.10
2019-03-26T08:25:26.830Z,6.70
2019-03-26T08:27:31.127Z,14.50
2019-03-26T08:29:35.529Z,9.47
2019-03-26T08:31:39.404Z,10.60
2019-03-26T08:33:43.344Z,10.40
2019-03-26T08:35:47.262Z,15.07
2019-03-26T08:37:51.129Z,13.40
2019-03-26T08:39:55.046Z,10.13
2019-03-26T08:41:58.985Z,13.70
2019-03-26T08:44:02.844Z,15.47
2019-03-26T08:46:06.713Z,11.33
2019-03-26T08:48:10.647Z,15.90
2019-03-26T08:50:15.421Z,10.10
2019-03-26T08:52:19.298Z,11.93
2019-03-26T08:54:23.222Z,8.60
2019-03-26T08:56:27.112Z,11.03
2019-03-26T08:58:31.108Z,13.93
2019-03-26T09:00:34.953Z,10.13
2019-03-26T09:02:38.812Z,8.03
2019-03-26T09:04:42.702Z,6.97
2019-03-26T09:06:46.679Z,7.87
2019-03-26T09:08:50.544Z,9.80
2019-03-26T09:10:54.412Z,8.93
2019-03-26T09:12:58.322Z,6.47
2019-03-26T09:15:02.206Z,11.20
2019-03-26T09:17:06.091Z,10.13
2019-03-26T09:19:09.954Z,7.40
2019-03-26T09:21:13.798Z,6.43
2019-03-26T09:23:17.721Z,9.87
2019-03-26T09:25:21.610Z,12.07
2019-03-26T09:27:25.450Z,8.97
2019-03-26T09:29:29.354Z,15.13
2019-03-26T09:31:33.202Z,12.87
2019-03-26T09:33:37.032Z,10.43
2019-03-26T09:35:40.946Z,14.43
2019-03-26T09:37:44.819Z,16.40
2019-03-26T09:39:48.698Z,11.33
2019-03-26T09:41:52.673Z,8.87
2019-03-26T09:43:56.536Z,9.53
2019-03-26T09:46:00.393Z,10.43
2019-03-26T09:48:04.410Z,14.63
2019-03-26T09:50:10.178Z,12.83
2019-03-26T09:52:14.070Z,15.63
2019-03-26T09:54:17.958Z,17.60
2019-03-26T09:56:29.123Z,14.53
2019-03-26T09:58:27.365Z,18.87
2019-03-26T10:00:31.321Z,12.13
2019-03-26T10:02:35.246Z,19.37
2019-03-26T10:04:39.118Z,8.77
2019-03-26T10:06:42.997Z,16.40
2019-03-26T10:08:52.172Z,16.13
2019-03-26T10:10:52.436Z,18.80
2019-03-26T10:12:56.318Z,20.97
2019-03-26T10:15:00.343Z,15.10
2019-03-26T10:17:04.254Z,15.67
2019-03-26T10:19:08.121Z,9.33
2019-03-26T10:21:12.056Z,12.90
2019-03-26T10:23:16.056Z,10.13
2019-03-26T10:25:19.951Z,13.13
2019-03-26T10:27:23.841Z,10.47
2019-03-26T10:29:30.575Z,12.17
2019-03-26T10:31:33.205Z,11.37
2019-03-26T10:33:37.129Z,12.10
2019-03-26T10:35:41.067Z,10.57
2019-03-26T10:37:45.153Z,13.53
2019-03-26T10:39:48.998Z,11.47
2019-03-26T10:41:52.867Z,14.83
2019-03-26T10:43:56.758Z,6.70
2019-03-26T10:46:00.613Z,10.20
2019-03-26T10:48:04.800Z,9.63
2019-03-26T10:50:08.962Z,8.40
2019-03-26T10:52:12.834Z,6.17
2019-03-26T10:54:16.717Z,8.53
2019-03-26T10:56:20.566Z,11.40
2019-03-26T10:58:24.441Z,4.67
2019-03-26T11:00:28.306Z,5.70
2019-03-26T11:02:32.171Z,8.83
2019-03-26T11:04:36.055Z,7.10
2019-03-26T11:06:39.917Z,5.57
2019-03-26T11:08:45.229Z,5.40
2019-03-26T11:10:49.863Z,8.03
2019-03-26T11:12:53.785Z,7.50
2019-03-26T11:14:57.665Z,6.07
2019-03-26T11:17:01.508Z,6.43
2019-03-26T11:19:05.447Z,6.70
2019-03-26T11:21:09.364Z,3.57
2019-03-26T11:23:13.328Z,6.87
2019-03-26T11:25:17.321Z,5.93
2019-03-26T11:27:21.206Z,11.53
2019-03-26T11:29:25.054Z,8.90
2019-03-26T11:31:30.227Z,6.50
2019-03-26T11:33:34.328Z,8.70
2019-03-26T11:35:38.262Z,7.10
2019-03-26T11:37:42.439Z,4.97
2019-03-26T11:39:46.344Z,6.50
2019-03-26T11:41:50.218Z,5.67
2019-03-26T11:43:54.073Z,6.13
2019-03-26T11:45:57.963Z,6.10
2019-03-26T11:48:01.901Z,8.53
2019-03-26T11:50:06.425Z,6.25
2019-03-26T11:52:10.310Z,6.43
2019-03-26T11:54:14.158Z,3.37
2019-03-26T11:56:18.037Z,3.47
2019-03-26T11:58:30.384Z,6.13
2019-03-26T12:00:32.730Z,6.27
2019-03-26T12:02:36.704Z,5.23
2019-03-26T12:04:40.654Z,4.17
2019-03-26T12:06:44.550Z,9.37
2019-03-26T12:08:48.474Z,4.90
2019-03-26T12:10:52.317Z,5.50
2019-03-26T12:12:56.255Z,6.40
2019-03-26T12:15:00.340Z,9.20
2019-03-26T12:17:04.244Z,6.67
2019-03-26T12:19:08.229Z,8.20
2019-03-26T12:21:12.117Z,8.33
2019-03-26T12:23:16.004Z,14.47
2019-03-26T12:25:19.889Z,22.43
2019-03-26T12:27:23.773Z,18.90
2019-03-26T12:29:27.710Z,13.13
2019-03-26T12:31:31.595Z,12.77
2019-03-26T12:33:35.438Z,11.83
2019-03-26T12:35:39.551Z,19.33
2019-03-26T12:37:43.477Z,11.20
2019-03-26T12:39:58.816Z,16.03
2019-03-26T12:41:52.929Z,17.77
2019-03-26T12:43:56.853Z,13.40
2019-03-26T12:46:01.951Z,11.33
2019-03-26T12:48:06.026Z,16.93
2019-03-26T12:50:10.118Z,18.17
2019-03-26T12:52:13.961Z,20.60
2019-03-26T12:54:17.857Z,20.90
2019-03-26T12:56:21.744Z,20.93
2019-03-26T12:58:31.869Z,18.47
2019-03-26T13:00:34.474Z,15.87
2019-03-26T13:02:38.315Z,17.03
2019-03-26T13:04:42.263Z,15.87
2019-03-26T13:06:46.170Z,19.73
2019-03-26T13:08:50.082Z,19.03
2019-03-26T13:10:54.358Z,21.73
2019-03-26T13:12:58.257Z,20.27
2019-03-26T13:15:02.296Z,17.00
2019-03-26T13:17:06.149Z,12.33
2019-03-26T13:19:10.112Z,19.47
2019-03-26T13:21:14.516Z,23.20
2019-03-26T13:23:18.799Z,18.67
2019-03-26T13:25:22.717Z,20.37
2019-03-26T13:27:26.573Z,23.57
2019-03-26T13:29:30.473Z,21.57
2019-03-26T13:31:34.382Z,17.67
2019-03-26T13:33:38.275Z,20.50
2019-03-26T13:35:42.118Z,20.47
2019-03-26T13:37:46.080Z,14.73
2019-03-26T13:39:51.209Z,22.13
2019-03-26T13:41:55.086Z,15.80
2019-03-26T13:43:58.954Z,22.03
2019-03-26T13:46:02.804Z,17.80
2019-03-26T13:48:06.778Z,15.60
2019-03-26T13:50:11.017Z,12.30
2019-03-26T13:52:14.893Z,25.90
2019-03-26T13:54:18.826Z,25.97
2019-03-26T13:56:22.658Z,22.37
2019-03-26T13:58:26.819Z,16.23
2019-03-26T14:00:36.026Z,18.23
2019-03-26T14:02:39.856Z,22.87
2019-03-26T14:04:43.801Z,17.33
2019-03-26T14:06:47.680Z,20.80
2019-03-26T14:08:51.527Z,21.53
2019-03-26T14:10:55.414Z,18.93
2019-03-26T14:12:59.294Z,12.43
2019-03-26T14:15:03.177Z,16.90
2019-03-26T14:17:07.049Z,15.30
2019-03-26T14:19:10.972Z,18.83
2019-03-26T14:21:14.831Z,14.70
2019-03-26T14:23:18.719Z,16.97
2019-03-26T14:25:22.601Z,19.33
2019-03-26T14:27:26.470Z,17.53
2019-03-26T14:29:30.605Z,15.27
2019-03-26T14:31:34.446Z,11.90
2019-03-26T14:33:38.306Z,19.23
2019-03-26T14:35:42.253Z,13.27
2019-03-26T14:37:51.437Z,18.50
2019-03-26T14:39:54.301Z,17.47
2019-03-26T14:41:57.301Z,19.80
2019-03-26T14:44:01.241Z,14.57
2019-03-26T14:46:05.084Z,17.27
2019-03-26T14:48:09.109Z,22.53
2019-03-26T14:50:13.270Z,16.43
2019-03-26T14:52:17.163Z,10.17
2019-03-26T14:54:21.033Z,18.33
2019-03-26T14:56:24.930Z,14.23
2019-03-26T14:58:28.778Z,17.23
2019-03-26T15:00:32.728Z,17.20
2019-03-26T15:02:36.577Z,21.37
2019-03-26T15:04:40.459Z,19.83
2019-03-26T15:06:44.308Z,12.23
2019-03-26T15:08:48.185Z,13.27
2019-03-26T15:10:52.086Z,14.33
2019-03-26T15:12:55.963Z,13.93
2019-03-26T15:14:59.792Z,13.77
2019-03-26T15:17:03.691Z,12.97
2019-03-26T15:19:07.608Z,12.90
2019-03-26T15:21:11.501Z,11.93
2019-03-26T15:23:15.333Z,17.27
2019-03-26T15:25:19.189Z,12.80
2019-03-26T15:27:23.073Z,15.13
2019-03-26T15:29:26.933Z,15.43
2019-03-26T15:31:30.787Z,9.87
2019-03-26T15:33:34.761Z,13.90
2019-03-26T15:35:38.645Z,17.83
2019-03-26T15:37:42.559Z,14.40
2019-03-26T15:39:46.508Z,13.13
2019-03-26T15:41:50.362Z,16.80
2019-03-26T15:43:54.290Z,11.00
2019-03-26T15:45:58.174Z,16.13
2019-03-26T15:48:02.048Z,16.37
2019-03-26T15:50:07.422Z,19.27
2019-03-26T15:52:11.288Z,11.70
2019-03-26T15:54:15.134Z,14.33
2019-03-26T15:56:19.025Z,14.43
2019-03-26T15:58:22.886Z,17.30
2019-03-26T16:00:29.828Z,12.40
2019-03-26T16:02:33.707Z,9.10
2019-03-26T16:04:37.606Z,17.23
2019-03-26T16:06:41.465Z,12.60
2019-03-26T16:08:45.363Z,16.13
2019-03-26T16:10:49.273Z,13.90
2019-03-26T16:12:55.157Z,16.43
2019-03-26T16:14:59.030Z,14.07
2019-03-26T16:17:02.955Z,15.03
2019-03-26T16:19:06.801Z,16.80
2019-03-26T16:21:10.691Z,11.87
2019-03-26T16:23:14.566Z,12.13
2019-03-26T16:25:18.418Z,17.20
2019-03-26T16:27:22.314Z,15.70
2019-03-26T16:29:26.244Z,22.30
2019-03-26T16:31:30.089Z,15.20
2019-03-26T16:33:34.030Z,14.60
2019-03-26T16:35:40.211Z,20.43
2019-03-26T16:37:43.422Z,19.17
2019-03-26T16:39:47.369Z,15.77
2019-03-26T16:41:51.250Z,15.53
2019-03-26T16:43:55.109Z,15.07
2019-03-26T16:45:59.081Z,11.07
2019-03-26T16:48:03.102Z,18.97
2019-03-26T16:50:08.166Z,15.70
2019-03-26T16:52:12.031Z,14.27
2019-03-26T16:54:15.964Z,17.77
2019-03-26T16:56:19.805Z,14.80
2019-03-26T16:58:23.733Z,10.93
2019-03-26T17:00:32.350Z,15.40
2019-03-26T17:02:36.308Z,16.50
2019-03-26T17:04:40.110Z,17.07
2019-03-26T17:06:44.057Z,10.80
2019-03-26T17:08:47.914Z,12.70
2019-03-26T17:10:51.849Z,15.90
2019-03-26T17:12:55.749Z,14.57
2019-03-26T17:14:59.620Z,15.20
2019-03-26T17:17:03.523Z,18.03
2019-03-26T17:19:07.414Z,17.67
2019-03-26T17:21:11.274Z,18.13
2019-03-26T17:23:15.197Z,10.23
2019-03-26T17:25:19.078Z,18.47
2019-03-26T17:27:22.956Z,10.30
2019-03-26T17:29:26.860Z,14.67
2019-03-26T17:31:30.717Z,13.90
2019-03-26T17:33:34.588Z,13.57
2019-03-26T17:35:38.497Z,19.30
2019-03-26T17:37:42.533Z,14.63
2019-03-26T17:39:46.407Z,19.03
2019-03-26T17:41:50.307Z,16.00
2019-03-26T17:43:54.167Z,10.07
2019-03-26T17:45:58.049Z,13.23
2019-03-26T17:48:01.933Z,15.97
2019-03-26T17:50:08.178Z,11.05
2019-03-26T17:52:12.204Z,18.47
2019-03-26T17:54:16.079Z,17.40
2019-03-26T17:56:19.941Z,12.13
2019-03-26T17:58:23.893Z,17.27
2019-03-26T18:00:36.152Z,13.83
2019-03-26T18:02:40.049Z,12.83
2019-03-26T18:04:43.895Z,23.87
2019-03-26T18:06:47.814Z,17.20
2019-03-26T18:08:51.677Z,21.27
2019-03-26T18:10:55.517Z,14.27
2019-03-26T18:12:59.438Z,18.30
2019-03-26T18:15:03.303Z,14.10
2019-03-26T18:17:07.183Z,14.70
2019-03-26T18:19:11.213Z,11.43
2019-03-26T18:21:15.065Z,13.33
2019-03-26T18:23:18.957Z,15.83
2019-03-26T18:25:22.890Z,12.47
2019-03-26T18:27:26.749Z,16.67
2019-03-26T18:29:30.629Z,9.93
2019-03-26T18:31:34.581Z,11.80
2019-03-26T18:33:38.436Z,17.67
2019-03-26T18:35:42.399Z,16.97
2019-03-26T18:37:46.269Z,18.03
2019-03-26T18:39:50.158Z,12.67
2019-03-26T18:41:54.137Z,19.00
2019-03-26T18:43:58.031Z,16.50
2019-03-26T18:46:01.922Z,17.23
2019-03-26T18:48:05.814Z,14.30
2019-03-26T18:50:10.771Z,14.90
2019-03-26T18:52:14.694Z,24.83
2019-03-26T18:54:18.578Z,12.90
2019-03-26T18:56:22.451Z,22.10
2019-03-26T18:58:26.388Z,18.33
2019-03-26T19:00:34.375Z,23.07
2019-03-26T19:02:38.245Z,16.63
2019-03-26T19:04:42.141Z,18.03
2019-03-26T19:06:46.051Z,15.83
2019-03-26T19:08:49.970Z,16.90
2019-03-26T19:10:53.865Z,17.50
2019-03-26T19:12:57.702Z,21.70
2019-03-26T19:15:01.726Z,22.00
2019-03-26T19:17:05.606Z,16.13
2019-03-26T19:19:09.541Z,11.73
2019-03-26T19:21:13.386Z,13.90
2019-03-26T19:23:17.265Z,20.57
2019-03-26T19:25:21.229Z,22.20
2019-03-26T19:27:25.131Z,22.57
2019-03-26T19:29:29.003Z,21.20
2019-03-26T19:31:32.889Z,14.20
2019-03-26T19:33:36.782Z,16.53
2019-03-26T19:35:40.727Z,19.70
2019-03-26T19:37:44.670Z,15.53
2019-03-26T19:39:48.580Z,22.23
2019-03-26T19:41:52.478Z,15.70
2019-03-26T19:43:56.379Z,20.90
2019-03-26T19:46:00.272Z,21.07
2019-03-26T19:48:04.132Z,25.47
2019-03-26T19:50:08.519Z,25.07
2019-03-26T19:52:12.442Z,19.97
2019-03-26T19:54:16.289Z,22.43
2019-03-26T19:56:20.181Z,17.47
2019-03-26T19:58:24.093Z,16.20
2019-03-26T20:00:27.945Z,17.03
2019-03-26T20:02:31.989Z,20.03
2019-03-26T20:04:35.844Z,14.83
2019-03-26T20:06:39.736Z,22.37
2019-03-26T20:08:43.645Z,20.70
2019-03-26T20:10:47.482Z,19.33
2019-03-26T20:12:51.334Z,12.70
2019-03-26T20:14:55.297Z,19.93
2019-03-26T20:16:59.153Z,21.73
2019-03-26T20:19:03.032Z,17.30
2019-03-26T20:21:06.895Z,22.40
2019-03-26T20:23:10.752Z,26.37
2019-03-26T20:25:14.779Z,20.93
2019-03-26T20:27:18.653Z,19.33
2019-03-26T20:29:22.574Z,23.23
2019-03-26T20:31:26.471Z,17.50
2019-03-26T20:33:30.357Z,17.30
2019-03-26T20:35:34.253Z,23.50
2019-03-26T20:37:38.115Z,16.40
2019-03-26T20:39:42.028Z,18.00
2019-03-26T20:41:45.926Z,27.13
2019-03-26T20:43:49.806Z,17.87
2019-03-26T20:45:53.746Z,19.10
2019-03-26T20:47:57.634Z,19.70
2019-03-26T20:50:01.531Z,19.43
2019-03-26T20:52:05.419Z,26.10
2019-03-26T20:54:09.250Z,19.13
2019-03-26T20:56:13.425Z,14.83
2019-03-26T20:58:17.273Z,13.67
2019-03-26T21:00:35.293Z,20.47
2019-03-26T21:02:39.198Z,18.93
2019-03-26T21:04:43.059Z,21.63
2019-03-26T21:06:46.947Z,25.03
2019-03-26T21:08:50.809Z,15.97
2019-03-26T21:10:54.671Z,14.20
2019-03-26T21:12:58.629Z,20.70
2019-03-26T21:15:02.512Z,20.73
2019-03-26T21:17:06.383Z,23.03
2019-03-26T21:19:10.289Z,21.80
2019-03-26T21:21:14.176Z,13.87
2019-03-26T21:23:18.077Z,20.57
2019-03-26T21:25:21.957Z,18.30
2019-03-26T21:27:25.863Z,25.17
2019-03-26T21:29:29.701Z,16.97
2019-03-26T21:31:33.599Z,18.33
2019-03-26T21:33:37.509Z,19.43
2019-03-26T21:35:41.429Z,23.00
2019-03-26T21:37:45.280Z,28.60
2019-03-26T21:39:49.180Z,23.63
2019-03-26T21:41:53.026Z,22.97
2019-03-26T21:44:04.228Z,28.40
2019-03-26T21:46:02.477Z,19.47
2019-03-26T21:48:07.021Z,19.90
2019-03-26T21:50:11.038Z,24.00
2019-03-26T21:52:14.890Z,26.77
2019-03-26T21:54:18.844Z,18.40
2019-03-26T21:56:22.757Z,26.60
2019-03-26T21:58:26.666Z,18.33
2019-03-26T22:00:30.628Z,21.10
2019-03-26T22:02:34.864Z,23.43
2019-03-26T22:04:39.052Z,16.77
2019-03-26T22:06:43.749Z,18.10
2019-03-26T22:08:47.621Z,18.10
2019-03-26T22:10:51.561Z,27.57
2019-03-26T22:12:55.418Z,30.37
2019-03-26T22:14:59.270Z,17.80
2019-03-26T22:17:03.182Z,19.17
2019-03-26T22:19:07.043Z,20.77
2019-03-26T22:21:11.006Z,18.00
2019-03-26T22:23:14.870Z,21.90
2019-03-26T22:25:18.802Z,25.00
2019-03-26T22:27:22.798Z,22.77
2019-03-26T22:29:26.641Z,26.13
2019-03-26T22:31:30.537Z,20.30
2019-03-26T22:33:34.431Z,21.60
2019-03-26T22:35:38.264Z,22.77
2019-03-26T22:37:44.553Z,21.03
2019-03-26T22:39:48.589Z,28.60
2019-03-26T22:41:52.428Z,20.93
2019-03-26T22:43:56.362Z,27.10
2019-03-26T22:46:00.207Z,28.60
2019-03-26T22:48:04.111Z,17.60
2019-03-26T22:50:10.130Z,20.73
2019-03-26T22:52:16.209Z,26.97
2019-03-26T22:54:20.391Z,20.10
2019-03-26T22:56:24.294Z,25.37
2019-03-26T22:58:28.177Z,19.87
2019-03-26T23:00:33.260Z,19.07
2019-03-26T23:02:37.111Z,22.47
2019-03-26T23:04:41.050Z,26.90
2019-03-26T23:06:47.370Z,21.63
2019-03-26T23:08:51.433Z,25.00
2019-03-26T23:10:55.356Z,26.83
2019-03-26T23:12:59.253Z,28.87
2019-03-26T23:15:03.113Z,25.80
2019-03-26T23:17:11.404Z,22.53
2019-03-26T23:19:15.394Z,23.80
2019-03-26T23:21:20.027Z,25.27
2019-03-26T23:23:24.086Z,20.77
2019-03-26T23:25:27.950Z,25.23
2019-03-26T23:27:31.834Z,22.57
2019-03-26T23:29:35.692Z,23.70
2019-03-26T23:31:39.577Z,32.67
2019-03-26T23:33:43.482Z,21.70
2019-03-26T23:35:47.379Z,30.20
2019-03-26T23:37:51.314Z,26.87
2019-03-26T23:39:55.226Z,34.83
2019-03-26T23:41:59.169Z,25.10
2019-03-26T23:44:03.052Z,27.80
2019-03-26T23:46:06.921Z,22.27
2019-03-26T23:48:10.779Z,28.57
2019-03-26T23:50:15.668Z,26.10
2019-03-26T23:52:19.525Z,17.73
2019-03-26T23:54:23.378Z,23.27
2019-03-26T23:56:27.290Z,21.80
2019-03-26T23:58:31.142Z,20.93
